sensor_id;sensor_type;location;lat;lon;timestamp;P1;durP1;ratioP1;P2;durP2;ratioP2
10387;SDS011;5240;51.128;4.566;2023-07-29T00:01:38;6.97;;;5.13;;
10387;SDS011;5240;51.128;4.566;2023-07-29T00:04:06;6.35;;;5.03;;
10387;SDS011;5240;51.128;4.566;2023-07-29T00:06:34;4.88;;;4.07;;
10387;SDS011;5240;51.128;4.566;2023-07-29T00:09:01;5.38;;;4.28;;
10387;SDS011;5240;51.128;4.566;2023-07-29T00:11:29;6.13;;;4.22;;
10387;SDS011;5240;51.128;4.566;2023-07-29T00:14:00;5.20;;;3.80;;
10387;SDS011;5240;51.128;4.566;2023-07-29T00:16:27;3.33;;;3.03;;
10387;SDS011;5240;51.128;4.566;2023-07-29T00:18:54;4.95;;;2.55;;
10387;SDS011;5240;51.128;4.566;2023-07-29T00:21:21;2.17;;;2.05;;
10387;SDS011;5240;51.128;4.566;2023-07-29T00:23:48;3.35;;;2.42;;
10387;SDS011;5240;51.128;4.566;2023-07-29T00:26:15;2.03;;;1.92;;
10387;SDS011;5240;51.128;4.566;2023-07-29T00:28:42;2.05;;;1.85;;
10387;SDS011;5240;51.128;4.566;2023-07-29T00:31:11;3.28;;;2.13;;
10387;SDS011;5240;51.128;4.566;2023-07-29T00:33:37;2.55;;;1.90;;
10387;SDS011;5240;51.128;4.566;2023-07-29T00:36:04;3.88;;;1.80;;
10387;SDS011;5240;51.128;4.566;2023-07-29T00:38:31;3.70;;;2.00;;
10387;SDS011;5240;51.128;4.566;2023-07-29T00:40:58;3.20;;;2.08;;
10387;SDS011;5240;51.128;4.566;2023-07-29T00:43:28;2.28;;;1.92;;
10387;SDS011;5240;51.128;4.566;2023-07-29T00:45:55;3.30;;;2.10;;
10387;SDS011;5240;51.128;4.566;2023-07-29T00:48:26;2.85;;;1.70;;
10387;SDS011;5240;51.128;4.566;2023-07-29T00:50:53;2.30;;;2.10;;
10387;SDS011;5240;51.128;4.566;2023-07-29T00:53:20;3.63;;;2.00;;
10387;SDS011;5240;51.128;4.566;2023-07-29T00:55:47;2.60;;;1.98;;
10387;SDS011;5240;51.128;4.566;2023-07-29T00:58:15;2.45;;;2.25;;
10387;SDS011;5240;51.128;4.566;2023-07-29T01:00:42;3.25;;;2.10;;
10387;SDS011;5240;51.128;4.566;2023-07-29T01:03:08;2.25;;;1.80;;
10387;SDS011;5240;51.128;4.566;2023-07-29T01:05:39;3.88;;;2.05;;
10387;SDS011;5240;51.128;4.566;2023-07-29T01:08:17;2.35;;;2.15;;
10387;SDS011;5240;51.128;4.566;2023-07-29T01:10:58;2.70;;;2.00;;
10387;SDS011;5240;51.128;4.566;2023-07-29T01:13:35;2.50;;;1.80;;
10387;SDS011;5240;51.128;4.566;2023-07-29T01:16:08;3.03;;;2.10;;
10387;SDS011;5240;51.128;4.566;2023-07-29T01:18:40;2.28;;;1.85;;
10387;SDS011;5240;51.128;4.566;2023-07-29T01:21:09;2.30;;;2.05;;
10387;SDS011;5240;51.128;4.566;2023-07-29T01:23:38;2.28;;;2.08;;
10387;SDS011;5240;51.128;4.566;2023-07-29T01:26:05;2.17;;;1.95;;
10387;SDS011;5240;51.128;4.566;2023-07-29T01:28:32;2.47;;;2.13;;
10387;SDS011;5240;51.128;4.566;2023-07-29T01:31:01;4.05;;;2.30;;
10387;SDS011;5240;51.128;4.566;2023-07-29T01:33:33;2.70;;;2.17;;
10387;SDS011;5240;51.128;4.566;2023-07-29T01:36:06;2.85;;;2.20;;
10387;SDS011;5240;51.128;4.566;2023-07-29T01:38:40;4.45;;;2.20;;
10387;SDS011;5240;51.128;4.566;2023-07-29T01:41:08;2.63;;;2.30;;
10387;SDS011;5240;51.128;4.566;2023-07-29T01:43:36;2.95;;;2.30;;
10387;SDS011;5240;51.128;4.566;2023-07-29T01:46:09;2.88;;;2.30;;
10387;SDS011;5240;51.128;4.566;2023-07-29T01:48:36;3.78;;;2.22;;
10387;SDS011;5240;51.128;4.566;2023-07-29T01:51:03;3.60;;;2.00;;
10387;SDS011;5240;51.128;4.566;2023-07-29T01:53:30;2.22;;;2.03;;
10387;SDS011;5240;51.128;4.566;2023-07-29T01:55:59;2.33;;;2.13;;
10387;SDS011;5240;51.128;4.566;2023-07-29T01:58:26;3.88;;;2.17;;
10387;SDS011;5240;51.128;4.566;2023-07-29T02:00:53;2.72;;;2.35;;
10387;SDS011;5240;51.128;4.566;2023-07-29T02:03:20;2.50;;;2.17;;
10387;SDS011;5240;51.128;4.566;2023-07-29T02:05:47;3.70;;;2.35;;
10387;SDS011;5240;51.128;4.566;2023-07-29T02:08:14;2.70;;;2.50;;
10387;SDS011;5240;51.128;4.566;2023-07-29T02:10:41;3.17;;;2.30;;
10387;SDS011;5240;51.128;4.566;2023-07-29T02:13:11;3.58;;;2.30;;
10387;SDS011;5240;51.128;4.566;2023-07-29T02:15:38;4.03;;;2.42;;
10387;SDS011;5240;51.128;4.566;2023-07-29T02:18:05;3.33;;;2.33;;
10387;SDS011;5240;51.128;4.566;2023-07-29T02:20:32;3.63;;;2.25;;
10387;SDS011;5240;51.128;4.566;2023-07-29T02:22:59;3.22;;;2.55;;
10387;SDS011;5240;51.128;4.566;2023-07-29T02:25:26;3.97;;;2.63;;
10387;SDS011;5240;51.128;4.566;2023-07-29T02:27:53;5.95;;;3.13;;
10387;SDS011;5240;51.128;4.566;2023-07-29T02:30:22;4.95;;;2.78;;
10387;SDS011;5240;51.128;4.566;2023-07-29T02:32:49;4.30;;;2.65;;
10387;SDS011;5240;51.128;4.566;2023-07-29T02:35:16;4.50;;;3.25;;
10387;SDS011;5240;51.128;4.566;2023-07-29T02:37:43;6.15;;;2.70;;
10387;SDS011;5240;51.128;4.566;2023-07-29T02:40:10;4.15;;;2.65;;
10387;SDS011;5240;51.128;4.566;2023-07-29T02:42:37;3.47;;;2.63;;
10387;SDS011;5240;51.128;4.566;2023-07-29T02:45:05;3.70;;;2.40;;
10387;SDS011;5240;51.128;4.566;2023-07-29T02:47:36;2.80;;;2.40;;
10387;SDS011;5240;51.128;4.566;2023-07-29T02:50:03;3.45;;;2.65;;
10387;SDS011;5240;51.128;4.566;2023-07-29T02:52:31;3.08;;;2.60;;
10387;SDS011;5240;51.128;4.566;2023-07-29T02:54:58;3.70;;;3.10;;
10387;SDS011;5240;51.128;4.566;2023-07-29T02:57:25;4.00;;;2.90;;
10387;SDS011;5240;51.128;4.566;2023-07-29T02:59:52;5.38;;;3.58;;
10387;SDS011;5240;51.128;4.566;2023-07-29T03:02:19;6.30;;;3.95;;
10387;SDS011;5240;51.128;4.566;2023-07-29T03:04:48;6.63;;;3.85;;
10387;SDS011;5240;51.128;4.566;2023-07-29T03:07:15;5.57;;;3.80;;
10387;SDS011;5240;51.128;4.566;2023-07-29T03:09:42;4.57;;;3.35;;
10387;SDS011;5240;51.128;4.566;2023-07-29T03:12:10;4.00;;;3.03;;
10387;SDS011;5240;51.128;4.566;2023-07-29T03:14:37;3.20;;;2.90;;
10387;SDS011;5240;51.128;4.566;2023-07-29T03:17:04;3.65;;;2.78;;
10387;SDS011;5240;51.128;4.566;2023-07-29T03:19:31;3.70;;;2.90;;
10387;SDS011;5240;51.128;4.566;2023-07-29T03:22:00;5.93;;;3.03;;
10387;SDS011;5240;51.128;4.566;2023-07-29T03:24:27;3.88;;;2.78;;
10387;SDS011;5240;51.128;4.566;2023-07-29T03:26:54;3.80;;;2.47;;
10387;SDS011;5240;51.128;4.566;2023-07-29T03:29:21;3.78;;;2.67;;
10387;SDS011;5240;51.128;4.566;2023-07-29T03:31:48;3.95;;;2.70;;
10387;SDS011;5240;51.128;4.566;2023-07-29T03:34:15;3.72;;;2.60;;
10387;SDS011;5240;51.128;4.566;2023-07-29T03:36:42;3.28;;;2.70;;
10387;SDS011;5240;51.128;4.566;2023-07-29T03:39:12;2.60;;;2.40;;
10387;SDS011;5240;51.128;4.566;2023-07-29T03:41:39;2.85;;;2.60;;
10387;SDS011;5240;51.128;4.566;2023-07-29T03:44:06;5.80;;;2.47;;
10387;SDS011;5240;51.128;4.566;2023-07-29T03:46:33;4.80;;;2.50;;
10387;SDS011;5240;51.128;4.566;2023-07-29T03:49:00;4.95;;;3.20;;
10387;SDS011;5240;51.128;4.566;2023-07-29T03:51:28;4.32;;;3.35;;
10387;SDS011;5240;51.128;4.566;2023-07-29T03:53:55;5.80;;;3.10;;
10387;SDS011;5240;51.128;4.566;2023-07-29T03:56:23;3.45;;;3.15;;
10387;SDS011;5240;51.128;4.566;2023-07-29T03:58:50;5.47;;;4.18;;
10387;SDS011;5240;51.128;4.566;2023-07-29T04:01:18;6.30;;;4.20;;
10387;SDS011;5240;51.128;4.566;2023-07-29T04:03:45;4.80;;;3.63;;
10387;SDS011;5240;51.128;4.566;2023-07-29T04:06:12;4.35;;;3.30;;
10387;SDS011;5240;51.128;4.566;2023-07-29T04:08:39;5.38;;;2.55;;
10387;SDS011;5240;51.128;4.566;2023-07-29T04:11:07;4.13;;;2.78;;
10387;SDS011;5240;51.128;4.566;2023-07-29T04:13:35;4.40;;;2.58;;
10387;SDS011;5240;51.128;4.566;2023-07-29T04:16:03;2.80;;;2.50;;
10387;SDS011;5240;51.128;4.566;2023-07-29T04:18:30;3.40;;;2.67;;
10387;SDS011;5240;51.128;4.566;2023-07-29T04:20:57;3.80;;;2.70;;
10387;SDS011;5240;51.128;4.566;2023-07-29T04:23:24;3.45;;;2.80;;
10387;SDS011;5240;51.128;4.566;2023-07-29T04:25:51;3.33;;;3.03;;
10387;SDS011;5240;51.128;4.566;2023-07-29T04:28:18;4.32;;;3.00;;
10387;SDS011;5240;51.128;4.566;2023-07-29T04:30:47;4.00;;;3.15;;
10387;SDS011;5240;51.128;4.566;2023-07-29T04:33:14;3.63;;;3.10;;
10387;SDS011;5240;51.128;4.566;2023-07-29T04:35:41;4.18;;;3.55;;
10387;SDS011;5240;51.128;4.566;2023-07-29T04:38:08;4.25;;;3.30;;
10387;SDS011;5240;51.128;4.566;2023-07-29T04:40:35;4.03;;;3.13;;
10387;SDS011;5240;51.128;4.566;2023-07-29T04:43:02;3.20;;;2.90;;
10387;SDS011;5240;51.128;4.566;2023-07-29T04:45:29;3.60;;;2.55;;
10387;SDS011;5240;51.128;4.566;2023-07-29T04:47:58;2.88;;;2.30;;
10387;SDS011;5240;51.128;4.566;2023-07-29T04:50:25;4.43;;;2.22;;
10387;SDS011;5240;51.128;4.566;2023-07-29T04:52:52;4.60;;;2.30;;
10387;SDS011;5240;51.128;4.566;2023-07-29T04:55:19;3.92;;;2.40;;
10387;SDS011;5240;51.128;4.566;2023-07-29T04:57:46;2.20;;;2.05;;
10387;SDS011;5240;51.128;4.566;2023-07-29T05:00:13;2.40;;;2.00;;
10387;SDS011;5240;51.128;4.566;2023-07-29T05:02:40;2.60;;;1.90;;
10387;SDS011;5240;51.128;4.566;2023-07-29T05:05:08;2.92;;;2.20;;
10387;SDS011;5240;51.128;4.566;2023-07-29T05:07:35;2.72;;;2.20;;
10387;SDS011;5240;51.128;4.566;2023-07-29T05:10:02;3.05;;;2.30;;
10387;SDS011;5240;51.128;4.566;2023-07-29T05:12:30;2.70;;;2.30;;
10387;SDS011;5240;51.128;4.566;2023-07-29T05:14:57;2.58;;;2.05;;
10387;SDS011;5240;51.128;4.566;2023-07-29T05:17:25;3.60;;;2.13;;
10387;SDS011;5240;51.128;4.566;2023-07-29T05:19:52;4.45;;;2.40;;
10387;SDS011;5240;51.128;4.566;2023-07-29T05:22:20;2.83;;;2.10;;
10387;SDS011;5240;51.128;4.566;2023-07-29T05:24:47;4.22;;;2.17;;
10387;SDS011;5240;51.128;4.566;2023-07-29T05:27:14;2.00;;;1.90;;
10387;SDS011;5240;51.128;4.566;2023-07-29T05:29:41;2.90;;;2.30;;
10387;SDS011;5240;51.128;4.566;2023-07-29T05:32:08;5.10;;;2.10;;
10387;SDS011;5240;51.128;4.566;2023-07-29T05:34:35;2.40;;;1.90;;
10387;SDS011;5240;51.128;4.566;2023-07-29T05:37:02;1.77;;;1.67;;
10387;SDS011;5240;51.128;4.566;2023-07-29T05:39:31;2.22;;;2.03;;
10387;SDS011;5240;51.128;4.566;2023-07-29T05:41:58;2.20;;;2.00;;
10387;SDS011;5240;51.128;4.566;2023-07-29T05:44:27;2.30;;;2.10;;
10387;SDS011;5240;51.128;4.566;2023-07-29T05:46:55;3.20;;;1.85;;
10387;SDS011;5240;51.128;4.566;2023-07-29T05:49:22;2.47;;;2.22;;
10387;SDS011;5240;51.128;4.566;2023-07-29T05:51:49;2.10;;;1.88;;
10387;SDS011;5240;51.128;4.566;2023-07-29T05:54:17;2.30;;;2.10;;
10387;SDS011;5240;51.128;4.566;2023-07-29T05:56:46;2.20;;;2.00;;
10387;SDS011;5240;51.128;4.566;2023-07-29T05:59:13;2.83;;;1.98;;
10387;SDS011;5240;51.128;4.566;2023-07-29T06:01:40;2.45;;;1.98;;
10387;SDS011;5240;51.128;4.566;2023-07-29T06:04:07;3.33;;;2.20;;
10387;SDS011;5240;51.128;4.566;2023-07-29T06:06:34;2.03;;;1.88;;
10387;SDS011;5240;51.128;4.566;2023-07-29T06:09:01;2.72;;;2.50;;
10387;SDS011;5240;51.128;4.566;2023-07-29T06:11:28;1.77;;;1.67;;
10387;SDS011;5240;51.128;4.566;2023-07-29T06:13:57;3.15;;;2.15;;
10387;SDS011;5240;51.128;4.566;2023-07-29T06:16:24;4.30;;;2.00;;
10387;SDS011;5240;51.128;4.566;2023-07-29T06:18:51;2.80;;;1.83;;
10387;SDS011;5240;51.128;4.566;2023-07-29T06:21:18;3.67;;;2.17;;
10387;SDS011;5240;51.128;4.566;2023-07-29T06:23:45;2.10;;;1.90;;
10387;SDS011;5240;51.128;4.566;2023-07-29T06:26:13;3.35;;;2.10;;
10387;SDS011;5240;51.128;4.566;2023-07-29T06:28:39;3.28;;;1.90;;
10387;SDS011;5240;51.128;4.566;2023-07-29T06:31:08;2.15;;;1.90;;
10387;SDS011;5240;51.128;4.566;2023-07-29T06:33:35;3.28;;;2.00;;
10387;SDS011;5240;51.128;4.566;2023-07-29T06:36:02;2.42;;;2.00;;
10387;SDS011;5240;51.128;4.566;2023-07-29T06:38:29;2.95;;;2.10;;
10387;SDS011;5240;51.128;4.566;2023-07-29T06:40:57;3.75;;;2.05;;
10387;SDS011;5240;51.128;4.566;2023-07-29T06:43:24;3.55;;;1.92;;
10387;SDS011;5240;51.128;4.566;2023-07-29T06:45:51;1.85;;;1.73;;
10387;SDS011;5240;51.128;4.566;2023-07-29T06:48:19;2.42;;;1.70;;
10387;SDS011;5240;51.128;4.566;2023-07-29T06:50:46;2.95;;;1.95;;
10387;SDS011;5240;51.128;4.566;2023-07-29T06:53:13;1.75;;;1.65;;
10387;SDS011;5240;51.128;4.566;2023-07-29T06:55:40;2.50;;;1.73;;
10387;SDS011;5240;51.128;4.566;2023-07-29T06:58:07;2.20;;;1.70;;
10387;SDS011;5240;51.128;4.566;2023-07-29T07:00:35;2.42;;;1.75;;
10387;SDS011;5240;51.128;4.566;2023-07-29T07:03:02;1.98;;;1.75;;
10387;SDS011;5240;51.128;4.566;2023-07-29T07:05:30;2.25;;;1.58;;
10387;SDS011;5240;51.128;4.566;2023-07-29T07:07:58;2.55;;;1.60;;
10387;SDS011;5240;51.128;4.566;2023-07-29T07:10:25;2.20;;;2.00;;
10387;SDS011;5240;51.128;4.566;2023-07-29T07:12:52;3.05;;;1.80;;
10387;SDS011;5240;51.128;4.566;2023-07-29T07:15:19;2.60;;;1.77;;
10387;SDS011;5240;51.128;4.566;2023-07-29T07:17:45;2.17;;;1.80;;
10387;SDS011;5240;51.128;4.566;2023-07-29T07:20:13;2.25;;;1.80;;
10387;SDS011;5240;51.128;4.566;2023-07-29T07:22:41;3.00;;;1.90;;
10387;SDS011;5240;51.128;4.566;2023-07-29T07:25:08;3.15;;;1.90;;
10387;SDS011;5240;51.128;4.566;2023-07-29T07:27:35;3.08;;;1.70;;
10387;SDS011;5240;51.128;4.566;2023-07-29T07:30:03;1.60;;;1.50;;
10387;SDS011;5240;51.128;4.566;2023-07-29T07:32:30;2.10;;;1.77;;
10387;SDS011;5240;51.128;4.566;2023-07-29T07:34:57;1.90;;;1.65;;
10387;SDS011;5240;51.128;4.566;2023-07-29T07:37:24;1.98;;;1.70;;
10387;SDS011;5240;51.128;4.566;2023-07-29T07:39:53;2.70;;;1.80;;
10387;SDS011;5240;51.128;4.566;2023-07-29T07:42:20;1.92;;;1.77;;
10387;SDS011;5240;51.128;4.566;2023-07-29T07:44:47;5.18;;;2.03;;
10387;SDS011;5240;51.128;4.566;2023-07-29T07:47:14;3.25;;;1.63;;
10387;SDS011;5240;51.128;4.566;2023-07-29T07:49:40;2.00;;;1.80;;
10387;SDS011;5240;51.128;4.566;2023-07-29T07:52:07;2.10;;;1.60;;
10387;SDS011;5240;51.128;4.566;2023-07-29T07:54:34;1.67;;;1.58;;
10387;SDS011;5240;51.128;4.566;2023-07-29T07:57:03;2.67;;;1.90;;
10387;SDS011;5240;51.128;4.566;2023-07-29T07:59:30;2.80;;;1.70;;
10387;SDS011;5240;51.128;4.566;2023-07-29T08:01:57;2.17;;;1.73;;
10387;SDS011;5240;51.128;4.566;2023-07-29T08:04:24;2.08;;;1.60;;
10387;SDS011;5240;51.128;4.566;2023-07-29T08:06:51;1.60;;;1.50;;
10387;SDS011;5240;51.128;4.566;2023-07-29T08:09:18;1.98;;;1.40;;
10387;SDS011;5240;51.128;4.566;2023-07-29T08:11:45;1.58;;;1.40;;
10387;SDS011;5240;51.128;4.566;2023-07-29T08:14:14;3.53;;;1.70;;
10387;SDS011;5240;51.128;4.566;2023-07-29T08:16:41;1.67;;;1.50;;
10387;SDS011;5240;51.128;4.566;2023-07-29T08:19:08;1.85;;;1.73;;
10387;SDS011;5240;51.128;4.566;2023-07-29T08:21:35;3.20;;;1.50;;
10387;SDS011;5240;51.128;4.566;2023-07-29T08:24:02;1.50;;;1.40;;
10387;SDS011;5240;51.128;4.566;2023-07-29T08:26:29;1.60;;;1.50;;
10387;SDS011;5240;51.128;4.566;2023-07-29T08:28:56;1.48;;;1.38;;
10387;SDS011;5240;51.128;4.566;2023-07-29T08:31:25;3.38;;;1.55;;
10387;SDS011;5240;51.128;4.566;2023-07-29T08:33:52;2.90;;;1.70;;
10387;SDS011;5240;51.128;4.566;2023-07-29T08:36:18;1.63;;;1.50;;
10387;SDS011;5240;51.128;4.566;2023-07-29T08:38:45;1.83;;;1.70;;
10387;SDS011;5240;51.128;4.566;2023-07-29T08:41:13;2.58;;;1.45;;
10387;SDS011;5240;51.128;4.566;2023-07-29T08:43:43;2.42;;;1.70;;
10387;SDS011;5240;51.128;4.566;2023-07-29T08:46:16;1.80;;;1.70;;
10387;SDS011;5240;51.128;4.566;2023-07-29T08:48:45;2.63;;;1.80;;
10387;SDS011;5240;51.128;4.566;2023-07-29T08:51:13;3.75;;;1.52;;
10387;SDS011;5240;51.128;4.566;2023-07-29T08:53:41;2.33;;;1.67;;
10387;SDS011;5240;51.128;4.566;2023-07-29T08:56:09;2.80;;;1.50;;
10387;SDS011;5240;51.128;4.566;2023-07-29T08:58:36;2.67;;;1.58;;
10387;SDS011;5240;51.128;4.566;2023-07-29T09:01:03;2.22;;;1.58;;
10387;SDS011;5240;51.128;4.566;2023-07-29T09:03:31;2.65;;;1.80;;
10387;SDS011;5240;51.128;4.566;2023-07-29T09:06:00;2.97;;;1.70;;
10387;SDS011;5240;51.128;4.566;2023-07-29T09:08:29;2.88;;;1.70;;
10387;SDS011;5240;51.128;4.566;2023-07-29T09:10:56;3.17;;;1.85;;
10387;SDS011;5240;51.128;4.566;2023-07-29T09:13:23;1.83;;;1.73;;
10387;SDS011;5240;51.128;4.566;2023-07-29T09:15:53;2.38;;;1.65;;
10387;SDS011;5240;51.128;4.566;2023-07-29T09:18:20;2.63;;;1.73;;
10387;SDS011;5240;51.128;4.566;2023-07-29T09:20:48;2.30;;;2.00;;
10387;SDS011;5240;51.128;4.566;2023-07-29T09:23:17;3.10;;;2.08;;
10387;SDS011;5240;51.128;4.566;2023-07-29T09:25:46;5.63;;;2.08;;
10387;SDS011;5240;51.128;4.566;2023-07-29T09:28:14;3.45;;;1.80;;
10387;SDS011;5240;51.128;4.566;2023-07-29T09:30:42;1.88;;;1.77;;
10387;SDS011;5240;51.128;4.566;2023-07-29T09:33:11;1.85;;;1.70;;
10387;SDS011;5240;51.128;4.566;2023-07-29T09:35:38;2.03;;;1.83;;
10387;SDS011;5240;51.128;4.566;2023-07-29T09:38:05;3.95;;;1.90;;
10387;SDS011;5240;51.128;4.566;2023-07-29T09:40:38;4.57;;;2.22;;
10387;SDS011;5240;51.128;4.566;2023-07-29T09:43:06;1.70;;;1.60;;
10387;SDS011;5240;51.128;4.566;2023-07-29T09:45:35;2.72;;;1.90;;
10387;SDS011;5240;51.128;4.566;2023-07-29T09:48:03;2.83;;;1.90;;
10387;SDS011;5240;51.128;4.566;2023-07-29T09:50:34;4.90;;;2.17;;
10387;SDS011;5240;51.128;4.566;2023-07-29T09:53:01;3.63;;;2.00;;
10387;SDS011;5240;51.128;4.566;2023-07-29T09:55:29;2.90;;;2.05;;
10387;SDS011;5240;51.128;4.566;2023-07-29T09:58:00;3.25;;;2.05;;
10387;SDS011;5240;51.128;4.566;2023-07-29T10:00:32;2.28;;;2.00;;
10387;SDS011;5240;51.128;4.566;2023-07-29T10:03:00;2.17;;;2.05;;
10387;SDS011;5240;51.128;4.566;2023-07-29T10:05:27;4.53;;;2.22;;
10387;SDS011;5240;51.128;4.566;2023-07-29T10:07:55;3.35;;;2.08;;
10387;SDS011;5240;51.128;4.566;2023-07-29T10:10:23;2.60;;;2.05;;
10387;SDS011;5240;51.128;4.566;2023-07-29T10:12:50;2.50;;;2.05;;
10387;SDS011;5240;51.128;4.566;2023-07-29T10:15:18;2.65;;;2.20;;
10387;SDS011;5240;51.128;4.566;2023-07-29T10:17:47;3.40;;;1.90;;
10387;SDS011;5240;51.128;4.566;2023-07-29T10:20:16;2.47;;;1.80;;
10387;SDS011;5240;51.128;4.566;2023-07-29T10:22:43;3.08;;;1.80;;
10387;SDS011;5240;51.128;4.566;2023-07-29T10:25:13;4.38;;;2.00;;
10387;SDS011;5240;51.128;4.566;2023-07-29T10:27:43;2.20;;;2.00;;
10387;SDS011;5240;51.128;4.566;2023-07-29T10:30:14;2.30;;;1.77;;
10387;SDS011;5240;51.128;4.566;2023-07-29T10:32:43;2.00;;;1.90;;
10387;SDS011;5240;51.128;4.566;2023-07-29T10:35:20;2.13;;;1.50;;
10387;SDS011;5240;51.128;4.566;2023-07-29T10:37:47;5.45;;;2.28;;
10387;SDS011;5240;51.128;4.566;2023-07-29T10:40:16;3.08;;;2.13;;
10387;SDS011;5240;51.128;4.566;2023-07-29T10:45:26;3.83;;;2.00;;
10387;SDS011;5240;51.128;4.566;2023-07-29T10:47:53;2.55;;;2.13;;
10387;SDS011;5240;51.128;4.566;2023-07-29T10:50:21;3.30;;;1.80;;
10387;SDS011;5240;51.128;4.566;2023-07-29T10:52:49;3.45;;;1.95;;
10387;SDS011;5240;51.128;4.566;2023-07-29T10:55:24;2.40;;;2.20;;
10387;SDS011;5240;51.128;4.566;2023-07-29T10:58:03;3.65;;;2.28;;
10387;SDS011;5240;51.128;4.566;2023-07-29T11:00:35;1.85;;;1.75;;
10387;SDS011;5240;51.128;4.566;2023-07-29T11:03:03;2.10;;;2.00;;
10387;SDS011;5240;51.128;4.566;2023-07-29T11:05:43;1.80;;;1.70;;
10387;SDS011;5240;51.128;4.566;2023-07-29T11:08:21;2.67;;;1.88;;
10387;SDS011;5240;51.128;4.566;2023-07-29T11:11:02;2.03;;;1.83;;
10387;SDS011;5240;51.128;4.566;2023-07-29T11:13:31;3.45;;;1.65;;
10387;SDS011;5240;51.128;4.566;2023-07-29T11:16:00;1.73;;;1.63;;
10387;SDS011;5240;51.128;4.566;2023-07-29T11:18:28;2.00;;;1.80;;
10387;SDS011;5240;51.128;4.566;2023-07-29T11:20:57;2.17;;;1.83;;
10387;SDS011;5240;51.128;4.566;2023-07-29T11:23:28;1.98;;;1.83;;
10387;SDS011;5240;51.128;4.566;2023-07-29T11:25:56;2.00;;;1.80;;
10387;SDS011;5240;51.128;4.566;2023-07-29T11:28:24;2.08;;;1.88;;
10387;SDS011;5240;51.128;4.566;2023-07-29T11:30:52;2.65;;;1.55;;
10387;SDS011;5240;51.128;4.566;2023-07-29T11:33:19;1.98;;;1.80;;
10387;SDS011;5240;51.128;4.566;2023-07-29T11:35:47;1.80;;;1.70;;
10387;SDS011;5240;51.128;4.566;2023-07-29T11:38:16;2.95;;;2.00;;
10387;SDS011;5240;51.128;4.566;2023-07-29T11:40:53;1.98;;;1.88;;
10387;SDS011;5240;51.128;4.566;2023-07-29T11:43:21;2.35;;;1.70;;
10387;SDS011;5240;51.128;4.566;2023-07-29T11:45:48;4.22;;;1.88;;
10387;SDS011;5240;51.128;4.566;2023-07-29T11:48:15;2.08;;;1.90;;
10387;SDS011;5240;51.128;4.566;2023-07-29T11:50:42;2.53;;;1.90;;
10387;SDS011;5240;51.128;4.566;2023-07-29T11:53:11;4.10;;;1.90;;
10387;SDS011;5240;51.128;4.566;2023-07-29T11:55:40;2.28;;;1.83;;
10387;SDS011;5240;51.128;4.566;2023-07-29T11:58:07;2.90;;;1.92;;
10387;SDS011;5240;51.128;4.566;2023-07-29T12:00:34;2.85;;;2.00;;
10387;SDS011;5240;51.128;4.566;2023-07-29T12:03:02;2.58;;;1.95;;
10387;SDS011;5240;51.128;4.566;2023-07-29T12:05:29;2.17;;;1.95;;
10387;SDS011;5240;51.128;4.566;2023-07-29T12:07:56;3.58;;;2.00;;
10387;SDS011;5240;51.128;4.566;2023-07-29T12:10:24;2.03;;;1.70;;
10387;SDS011;5240;51.128;4.566;2023-07-29T12:12:53;1.95;;;1.75;;
10387;SDS011;5240;51.128;4.566;2023-07-29T12:15:24;2.10;;;1.70;;
10387;SDS011;5240;51.128;4.566;2023-07-29T12:17:52;2.05;;;1.70;;
10387;SDS011;5240;51.128;4.566;2023-07-29T12:20:22;2.47;;;1.50;;
10387;SDS011;5240;51.128;4.566;2023-07-29T12:22:53;2.72;;;1.80;;
10387;SDS011;5240;51.128;4.566;2023-07-29T12:25:21;2.25;;;1.50;;
10387;SDS011;5240;51.128;4.566;2023-07-29T12:27:50;2.70;;;1.50;;
10387;SDS011;5240;51.128;4.566;2023-07-29T12:30:21;2.50;;;1.63;;
10387;SDS011;5240;51.128;4.566;2023-07-29T12:32:49;1.33;;;1.27;;
10387;SDS011;5240;51.128;4.566;2023-07-29T12:35:16;1.38;;;1.27;;
10387;SDS011;5240;51.128;4.566;2023-07-29T12:37:43;1.40;;;1.30;;
10387;SDS011;5240;51.128;4.566;2023-07-29T12:40:23;1.58;;;1.38;;
10387;SDS011;5240;51.128;4.566;2023-07-29T12:42:50;1.40;;;1.30;;
10387;SDS011;5240;51.128;4.566;2023-07-29T12:45:17;5.13;;;1.30;;
10387;SDS011;5240;51.128;4.566;2023-07-29T12:47:50;1.45;;;1.33;;
10387;SDS011;5240;51.128;4.566;2023-07-29T12:50:17;1.30;;;1.20;;
10387;SDS011;5240;51.128;4.566;2023-07-29T12:52:44;2.97;;;1.55;;
10387;SDS011;5240;51.128;4.566;2023-07-29T12:55:11;4.20;;;1.25;;
10387;SDS011;5240;51.128;4.566;2023-07-29T12:57:39;1.40;;;1.30;;
10387;SDS011;5240;51.128;4.566;2023-07-29T13:00:08;2.35;;;1.50;;
10387;SDS011;5240;51.128;4.566;2023-07-29T13:02:35;2.38;;;1.40;;
10387;SDS011;5240;51.128;4.566;2023-07-29T13:05:04;2.33;;;1.50;;
10387;SDS011;5240;51.128;4.566;2023-07-29T13:07:32;1.50;;;1.40;;
10387;SDS011;5240;51.128;4.566;2023-07-29T13:10:00;1.50;;;1.40;;
10387;SDS011;5240;51.128;4.566;2023-07-29T13:12:27;1.70;;;1.60;;
10387;SDS011;5240;51.128;4.566;2023-07-29T13:14:54;3.13;;;1.42;;
10387;SDS011;5240;51.128;4.566;2023-07-29T13:17:21;1.40;;;1.30;;
10387;SDS011;5240;51.128;4.566;2023-07-29T13:19:48;1.45;;;1.35;;
10387;SDS011;5240;51.128;4.566;2023-07-29T13:22:17;1.40;;;1.30;;
10387;SDS011;5240;51.128;4.566;2023-07-29T13:24:44;1.60;;;1.50;;
10387;SDS011;5240;51.128;4.566;2023-07-29T13:27:11;1.92;;;1.58;;
10387;SDS011;5240;51.128;4.566;2023-07-29T13:29:38;1.88;;;1.40;;
10387;SDS011;5240;51.128;4.566;2023-07-29T13:32:07;1.30;;;1.25;;
10387;SDS011;5240;51.128;4.566;2023-07-29T13:34:34;1.73;;;1.42;;
10387;SDS011;5240;51.128;4.566;2023-07-29T13:37:01;1.33;;;1.33;;
10387;SDS011;5240;51.128;4.566;2023-07-29T13:39:30;1.88;;;1.50;;
10387;SDS011;5240;51.128;4.566;2023-07-29T13:41:57;1.52;;;1.27;;
10387;SDS011;5240;51.128;4.566;2023-07-29T13:44:24;1.55;;;1.45;;
10387;SDS011;5240;51.128;4.566;2023-07-29T13:46:51;3.40;;;3.08;;
10387;SDS011;5240;51.128;4.566;2023-07-29T13:49:17;1.60;;;1.50;;
10387;SDS011;5240;51.128;4.566;2023-07-29T13:51:45;3.30;;;1.40;;
10387;SDS011;5240;51.128;4.566;2023-07-29T13:54:12;1.70;;;1.45;;
10387;SDS011;5240;51.128;4.566;2023-07-29T13:56:40;1.80;;;1.55;;
10387;SDS011;5240;51.128;4.566;2023-07-29T13:59:07;1.95;;;1.80;;
10387;SDS011;5240;51.128;4.566;2023-07-29T14:01:34;1.60;;;1.50;;
10387;SDS011;5240;51.128;4.566;2023-07-29T14:04:01;1.40;;;1.40;;
10387;SDS011;5240;51.128;4.566;2023-07-29T14:06:29;3.00;;;1.67;;
10387;SDS011;5240;51.128;4.566;2023-07-29T14:08:56;1.55;;;1.45;;
10387;SDS011;5240;51.128;4.566;2023-07-29T14:11:23;2.33;;;1.52;;
10387;SDS011;5240;51.128;4.566;2023-07-29T14:13:52;2.13;;;1.65;;
10387;SDS011;5240;51.128;4.566;2023-07-29T14:16:19;1.55;;;1.45;;
10387;SDS011;5240;51.128;4.566;2023-07-29T14:18:46;1.95;;;1.50;;
10387;SDS011;5240;51.128;4.566;2023-07-29T14:21:13;2.42;;;1.58;;
10387;SDS011;5240;51.128;4.566;2023-07-29T14:23:40;2.03;;;1.45;;
10387;SDS011;5240;51.128;4.566;2023-07-29T14:26:07;2.80;;;1.58;;
10387;SDS011;5240;51.128;4.566;2023-07-29T14:28:34;1.67;;;1.58;;
10387;SDS011;5240;51.128;4.566;2023-07-29T14:31:03;1.77;;;1.67;;
10387;SDS011;5240;51.128;4.566;2023-07-29T14:33:30;2.30;;;1.60;;
10387;SDS011;5240;51.128;4.566;2023-07-29T14:35:57;1.70;;;1.60;;
10387;SDS011;5240;51.128;4.566;2023-07-29T14:38:24;4.07;;;1.90;;
10387;SDS011;5240;51.128;4.566;2023-07-29T14:40:51;1.63;;;1.52;;
10387;SDS011;5240;51.128;4.566;2023-07-29T14:43:20;3.83;;;1.73;;
10387;SDS011;5240;51.128;4.566;2023-07-29T14:45:47;1.90;;;1.80;;
10387;SDS011;5240;51.128;4.566;2023-07-29T14:48:15;8.35;;;1.95;;
10387;SDS011;5240;51.128;4.566;2023-07-29T14:50:42;4.22;;;2.40;;
10387;SDS011;5240;51.128;4.566;2023-07-29T14:53:09;3.40;;;2.35;;
10387;SDS011;5240;51.128;4.566;2023-07-29T14:55:37;5.78;;;2.80;;
10387;SDS011;5240;51.128;4.566;2023-07-29T14:58:04;4.05;;;3.20;;
10387;SDS011;5240;51.128;4.566;2023-07-29T15:00:31;5.32;;;3.40;;
10387;SDS011;5240;51.128;4.566;2023-07-29T15:02:58;6.60;;;2.90;;
10387;SDS011;5240;51.128;4.566;2023-07-29T15:05:26;3.88;;;3.00;;
10387;SDS011;5240;51.128;4.566;2023-07-29T15:07:53;4.05;;;2.92;;